createdAt,value
2018-07-05T00:00:50.907Z,7.80
2018-07-05T00:01:50.903Z,6.60
2018-07-05T00:02:50.881Z,7.50
2018-07-05T00:03:50.873Z,9.00
2018-07-05T00:04:50.859Z,9.50
2018-07-05T00:05:50.902Z,7.10
2018-07-05T00:06:50.845Z,5.70
2018-07-05T00:07:50.823Z,9.40
2018-07-05T00:08:50.814Z,6.40
2018-07-05T00:09:50.803Z,7.20
2018-07-05T00:10:50.785Z,7.10
2018-07-05T00:11:50.808Z,5.60
2018-07-05T00:12:50.782Z,9.30
2018-07-05T00:13:50.779Z,10.70
2018-07-05T00:14:50.739Z,8.90
2018-07-05T00:15:50.732Z,5.90
2018-07-05T00:16:50.728Z,7.20
2018-07-05T00:17:50.720Z,6.50
2018-07-05T00:18:50.698Z,7.30
2018-07-05T00:19:50.685Z,8.30
2018-07-05T00:20:50.669Z,11.00
2018-07-05T00:21:50.663Z,9.00
2018-07-05T00:22:50.657Z,5.50
2018-07-05T00:23:50.649Z,6.80
2018-07-05T00:24:50.625Z,5.50
2018-07-05T00:25:50.624Z,5.50
2018-07-05T00:26:50.647Z,7.00
2018-07-05T00:27:50.601Z,8.20
2018-07-05T00:28:50.583Z,7.10
2018-07-05T00:29:50.597Z,6.60
2018-07-05T00:30:50.554Z,5.30
2018-07-05T00:31:50.542Z,9.70
2018-07-05T00:32:50.575Z,7.70
2018-07-05T00:33:50.534Z,8.50
2018-07-05T00:34:50.534Z,6.30
2018-07-05T00:35:50.511Z,6.00
2018-07-05T00:36:50.490Z,6.00
2018-07-05T00:37:50.476Z,8.10
2018-07-05T00:38:50.468Z,8.10
2018-07-05T00:39:50.471Z,6.00
2018-07-05T00:40:50.457Z,6.40
2018-07-05T00:41:50.426Z,5.00
2018-07-05T00:42:50.422Z,8.50
2018-07-05T00:43:50.413Z,6.70
2018-07-05T00:44:50.397Z,4.90
2018-07-05T00:45:50.396Z,5.40
2018-07-05T00:46:50.392Z,9.30
2018-07-05T00:47:50.376Z,6.10
2018-07-05T00:48:50.352Z,7.40
2018-07-05T00:49:50.344Z,6.50
2018-07-05T00:50:50.386Z,8.40
2018-07-05T00:51:50.366Z,6.30
2018-07-05T00:52:50.366Z,9.10
2018-07-05T00:53:50.283Z,10.60
2018-07-05T00:54:50.279Z,9.10
2018-07-05T00:55:50.279Z,8.00
2018-07-05T00:56:50.268Z,8.70
2018-07-05T00:57:50.236Z,8.80
2018-07-05T00:58:50.230Z,6.70
2018-07-05T00:59:50.227Z,5.80
2018-07-05T01:00:50.213Z,10.30
2018-07-05T01:01:50.199Z,7.20
2018-07-05T01:02:50.201Z,9.00
2018-07-05T01:03:50.170Z,8.70
2018-07-05T01:04:50.158Z,9.30
2018-07-05T01:05:50.149Z,9.30
2018-07-05T01:06:50.137Z,6.00
2018-07-05T01:07:50.143Z,8.20
2018-07-05T01:08:50.114Z,11.80
2018-07-05T01:09:50.104Z,6.90
2018-07-05T01:10:50.086Z,7.20
2018-07-05T01:11:50.089Z,10.30
2018-07-05T01:12:50.067Z,11.00
2018-07-05T01:13:50.072Z,5.70
2018-07-05T01:14:50.036Z,7.90
2018-07-05T01:15:50.030Z,8.60
2018-07-05T01:16:50.028Z,8.70
2018-07-05T01:17:50.018Z,8.00
2018-07-05T01:18:50.000Z,9.20
2018-07-05T01:19:49.980Z,6.80
2018-07-05T01:20:49.963Z,10.90
2018-07-05T01:21:49.951Z,10.70
2018-07-05T01:22:49.958Z,10.10
2018-07-05T01:23:49.930Z,8.40
2018-07-05T01:24:49.923Z,9.70
2018-07-05T01:25:49.912Z,9.00
2018-07-05T01:26:49.890Z,6.10
2018-07-05T01:27:49.887Z,8.20
2018-07-05T01:28:49.874Z,7.50
2018-07-05T01:29:49.858Z,6.40
2018-07-05T01:30:49.859Z,7.60
2018-07-05T01:31:49.834Z,9.50
2018-07-05T01:32:49.826Z,9.60
2018-07-05T01:33:49.814Z,14.30
2018-07-05T01:34:49.796Z,10.90
2018-07-05T01:35:49.787Z,7.90
2018-07-05T01:36:49.776Z,10.40
2018-07-05T01:37:49.762Z,8.30
2018-07-05T01:38:49.760Z,11.40
2018-07-05T01:39:49.734Z,8.30
2018-07-05T01:40:49.742Z,11.50
2018-07-05T01:41:49.717Z,10.40
2018-07-05T01:42:49.698Z,6.80
2018-07-05T01:43:49.703Z,9.20
2018-07-05T01:44:49.672Z,8.30
2018-07-05T01:45:49.667Z,7.70
2018-07-05T01:46:49.653Z,7.10
2018-07-05T01:47:49.636Z,12.60
2018-07-05T01:48:49.628Z,9.70
2018-07-05T01:49:49.641Z,9.00
2018-07-05T01:50:49.648Z,9.10
2018-07-05T01:51:49.606Z,9.80
2018-07-05T01:52:49.585Z,12.70
2018-07-05T01:53:49.563Z,9.40
2018-07-05T01:54:49.560Z,10.60
2018-07-05T01:55:49.553Z,10.20
2018-07-05T01:56:49.529Z,7.60
2018-07-05T01:57:49.524Z,9.40
2018-07-05T01:58:49.506Z,10.00
2018-07-05T01:59:49.492Z,9.40
2018-07-05T02:00:49.484Z,7.50
2018-07-05T02:01:49.470Z,13.60
2018-07-05T02:02:49.457Z,9.60
2018-07-05T02:03:49.437Z,9.50
2018-07-05T02:04:49.435Z,9.70
2018-07-05T02:05:49.420Z,10.00
2018-07-05T02:06:49.493Z,9.30
2018-07-05T02:07:49.390Z,11.50
2018-07-05T02:08:49.396Z,10.60
2018-07-05T02:09:49.380Z,10.60
2018-07-05T02:10:49.377Z,8.40
2018-07-05T02:11:49.401Z,12.00
2018-07-05T02:12:49.339Z,8.60
2018-07-05T02:13:49.314Z,10.90
2018-07-05T02:14:49.305Z,10.20
2018-07-05T02:15:49.292Z,11.00
2018-07-05T02:16:49.278Z,10.30
2018-07-05T02:17:49.282Z,9.70
2018-07-05T02:18:49.257Z,7.90
2018-07-05T02:19:49.240Z,11.20
2018-07-05T02:20:49.226Z,9.60
2018-07-05T02:21:49.227Z,10.80
2018-07-05T02:22:49.222Z,8.90
2018-07-05T02:23:49.192Z,9.40
2018-07-05T02:24:49.180Z,9.30
2018-07-05T02:25:49.172Z,9.90
2018-07-05T02:26:49.211Z,9.00
2018-07-05T02:27:49.145Z,7.70
2018-07-05T02:28:49.130Z,10.90
2018-07-05T02:29:49.116Z,10.40
2018-07-05T02:30:49.101Z,8.40
2018-07-05T02:31:49.095Z,10.80
2018-07-05T02:32:49.075Z,11.20
2018-07-05T02:33:49.090Z,9.90
2018-07-05T02:34:49.057Z,9.80
2018-07-05T02:35:49.065Z,10.30
2018-07-05T02:36:49.062Z,11.00
2018-07-05T02:37:49.015Z,9.20
2018-07-05T02:38:49.006Z,9.10
2018-07-05T02:39:48.989Z,10.90
2018-07-05T02:40:48.990Z,10.20
2018-07-05T02:41:48.969Z,10.90
2018-07-05T02:42:48.952Z,10.30
2018-07-05T02:43:48.949Z,8.10
2018-07-05T02:44:48.928Z,10.60
2018-07-05T02:45:48.912Z,14.10
2018-07-05T02:46:48.907Z,8.80
2018-07-05T02:47:48.895Z,11.10
2018-07-05T02:48:48.889Z,9.70
2018-07-05T02:49:48.872Z,8.40
2018-07-05T02:50:48.858Z,11.60
2018-07-05T02:51:48.849Z,9.70
2018-07-05T02:52:48.844Z,9.50
2018-07-05T02:53:48.823Z,13.40
2018-07-05T02:54:48.801Z,11.10
2018-07-05T02:55:48.837Z,10.10
2018-07-05T02:56:48.778Z,11.20
2018-07-05T02:57:48.766Z,9.90
2018-07-05T02:58:48.755Z,13.50
2018-07-05T02:59:48.750Z,10.90
2018-07-05T03:00:48.724Z,11.10
2018-07-05T03:01:48.708Z,12.00
2018-07-05T03:02:48.706Z,8.90
2018-07-05T03:03:48.702Z,10.80
2018-07-05T03:04:48.712Z,14.20
2018-07-05T03:05:48.673Z,9.30
2018-07-05T03:06:48.649Z,14.30
2018-07-05T03:07:48.636Z,12.40
2018-07-05T03:08:48.616Z,10.60
2018-07-05T03:09:48.616Z,12.50
2018-07-05T03:10:48.619Z,13.00
2018-07-05T03:11:48.582Z,8.90
2018-07-05T03:12:48.574Z,10.60
2018-07-05T03:13:48.551Z,10.60
2018-07-05T03:14:48.551Z,11.10
2018-07-05T03:15:48.534Z,12.40
2018-07-05T03:16:48.527Z,13.10
2018-07-05T03:17:48.510Z,10.20
2018-07-05T03:18:48.489Z,10.50
2018-07-05T03:19:48.490Z,10.80
2018-07-05T03:20:48.483Z,12.30
2018-07-05T03:21:48.454Z,12.70
2018-07-05T03:22:48.440Z,12.60
2018-07-05T03:23:48.427Z,11.70
2018-07-05T03:24:48.412Z,11.00
2018-07-05T03:25:48.421Z,10.10
2018-07-05T03:26:48.390Z,12.30
2018-07-05T03:27:48.377Z,13.10
2018-07-05T03:28:48.370Z,10.10
2018-07-05T03:29:48.355Z,14.50
2018-07-05T03:30:48.343Z,11.80
2018-07-05T03:31:48.329Z,11.00
2018-07-05T03:32:48.311Z,12.20
2018-07-05T03:33:48.300Z,11.70
2018-07-05T03:34:48.307Z,10.50
2018-07-05T03:35:48.279Z,14.50
2018-07-05T03:36:48.253Z,13.50
2018-07-05T03:37:48.240Z,12.80
2018-07-05T03:38:48.235Z,14.40
2018-07-05T03:39:48.231Z,11.70
2018-07-05T03:40:48.210Z,12.20
2018-07-05T03:41:48.191Z,12.90
2018-07-05T03:42:48.179Z,12.60
2018-07-05T03:43:48.169Z,11.50
2018-07-05T03:44:48.166Z,13.50
2018-07-05T03:45:48.149Z,12.60
2018-07-05T03:46:48.122Z,14.70
2018-07-05T03:47:48.109Z,12.80
2018-07-05T03:48:48.097Z,14.00
2018-07-05T03:49:48.086Z,14.60
2018-07-05T03:50:48.091Z,13.80
2018-07-05T03:51:48.056Z,10.50
2018-07-05T03:52:48.048Z,11.40
2018-07-05T03:53:48.040Z,13.70
2018-07-05T03:54:48.018Z,13.20
2018-07-05T03:55:48.014Z,10.60
2018-07-05T03:56:48.000Z,15.10
2018-07-05T03:57:47.979Z,11.50
2018-07-05T03:58:47.968Z,13.60
2018-07-05T03:59:47.950Z,12.50
2018-07-05T04:00:47.955Z,10.90
2018-07-05T04:01:47.937Z,12.40
2018-07-05T04:02:47.920Z,13.40
2018-07-05T04:03:47.936Z,14.60
2018-07-05T04:04:47.902Z,13.10
2018-07-05T04:05:47.885Z,13.50
2018-07-05T04:06:47.864Z,11.30
2018-07-05T04:07:47.853Z,12.00
2018-07-05T04:08:47.835Z,13.10
2018-07-05T04:09:47.834Z,13.40
2018-07-05T04:10:47.823Z,15.50
2018-07-05T04:11:47.822Z,12.90
2018-07-05T04:12:47.790Z,13.50
2018-07-05T04:13:47.793Z,11.50
2018-07-05T04:14:47.767Z,12.70
2018-07-05T04:15:47.755Z,13.40
2018-07-05T04:16:47.741Z,12.30
2018-07-05T04:17:47.722Z,13.50
2018-07-05T04:18:47.714Z,16.20
2018-07-05T04:19:47.704Z,14.50
2018-07-05T04:20:47.716Z,13.90
2018-07-05T04:21:47.685Z,11.60
2018-07-05T04:22:47.667Z,13.10
2018-07-05T04:23:47.639Z,14.10
2018-07-05T04:24:47.635Z,13.20
2018-07-05T04:25:47.640Z,14.90
2018-07-05T04:26:47.616Z,13.60
2018-07-05T04:27:47.588Z,14.80
2018-07-05T04:28:47.581Z,14.70
2018-07-05T04:29:47.564Z,13.80
2018-07-05T04:30:47.569Z,14.00
2018-07-05T04:31:47.545Z,13.00
2018-07-05T04:32:47.549Z,12.90
2018-07-05T04:33:47.514Z,12.70
2018-07-05T04:34:47.513Z,14.20
2018-07-05T04:35:47.499Z,16.90
2018-07-05T04:36:47.478Z,13.00
2018-07-05T04:37:47.465Z,12.80
2018-07-05T04:38:47.459Z,12.90
2018-07-05T04:39:47.442Z,14.00
2018-07-05T04:40:47.443Z,13.00
2018-07-05T04:41:47.442Z,13.10
2018-07-05T04:42:47.411Z,13.80
2018-07-05T04:43:47.458Z,11.40
2018-07-05T04:44:47.406Z,15.00
2018-07-05T04:45:47.376Z,12.70
2018-07-05T04:46:47.372Z,13.60
2018-07-05T04:47:47.369Z,11.90
2018-07-05T04:48:47.332Z,11.90
2018-07-05T04:49:47.317Z,14.50
2018-07-05T04:50:47.310Z,13.60
2018-07-05T04:51:47.321Z,15.40
2018-07-05T04:52:47.283Z,16.40
2018-07-05T04:53:47.291Z,12.90
2018-07-05T04:54:47.272Z,13.60
2018-07-05T04:55:47.249Z,15.10
2018-07-05T04:56:47.238Z,14.90
2018-07-05T04:57:47.214Z,14.60
2018-07-05T04:58:47.209Z,16.00
2018-07-05T04:59:47.191Z,14.40
2018-07-05T05:00:47.202Z,13.40
2018-07-05T05:01:47.173Z,15.80
2018-07-05T05:02:47.165Z,13.60
2018-07-05T05:03:47.138Z,14.90
2018-07-05T05:04:47.131Z,15.10
2018-07-05T05:05:47.154Z,13.80
2018-07-05T05:06:47.104Z,15.20
2018-07-05T05:07:47.084Z,13.70
2018-07-05T05:08:47.145Z,15.40
2018-07-05T05:09:47.118Z,16.50
2018-07-05T05:10:47.102Z,14.00
2018-07-05T05:11:47.085Z,14.80
2018-07-05T05:12:47.046Z,16.10
2018-07-05T05:13:47.031Z,15.40
2018-07-05T05:14:47.022Z,13.60
2018-07-05T05:15:46.995Z,13.40
2018-07-05T05:16:47.002Z,13.80
2018-07-05T05:17:46.977Z,13.90
2018-07-05T05:18:46.980Z,14.20
2018-07-05T05:19:46.955Z,13.90
2018-07-05T05:20:46.964Z,16.70
2018-07-05T05:21:46.979Z,15.70
2018-07-05T05:22:46.925Z,16.90
2018-07-05T05:23:46.895Z,17.30
2018-07-05T05:24:46.894Z,14.60
2018-07-05T05:25:46.888Z,15.60
2018-07-05T05:26:46.891Z,14.20
2018-07-05T05:27:46.854Z,13.30
2018-07-05T05:28:46.869Z,15.70
2018-07-05T05:29:46.836Z,15.30
2018-07-05T05:30:46.849Z,14.00
2018-07-05T05:31:46.792Z,16.30
2018-07-05T05:32:46.812Z,14.50
2018-07-05T05:33:46.777Z,15.00
2018-07-05T05:34:46.772Z,17.00
2018-07-05T05:35:46.747Z,15.80
2018-07-05T05:36:46.774Z,14.80
2018-07-05T05:37:46.744Z,16.30
2018-07-05T05:38:46.750Z,15.50
2018-07-05T05:39:46.703Z,15.80
2018-07-05T05:40:46.682Z,18.10
2018-07-05T05:41:46.673Z,15.50
2018-07-05T05:42:46.691Z,16.80
2018-07-05T05:43:46.664Z,16.00
2018-07-05T05:44:46.645Z,18.90
2018-07-05T05:45:46.635Z,16.00
2018-07-05T05:46:46.711Z,16.30
2018-07-05T05:47:46.647Z,16.60
2018-07-05T05:48:46.625Z,15.60
2018-07-05T05:49:46.588Z,18.90
2018-07-05T05:50:46.575Z,17.10
2018-07-05T05:51:46.572Z,15.80
2018-07-05T05:52:46.868Z,15.80
2018-07-05T05:53:46.551Z,16.30
2018-07-05T05:54:46.515Z,16.10
2018-07-05T05:55:46.537Z,18.70
2018-07-05T05:56:46.503Z,15.50
2018-07-05T05:57:46.506Z,14.40
2018-07-05T05:58:46.496Z,15.00
2018-07-05T05:59:46.481Z,17.50
2018-07-05T06:00:46.443Z,20.00
2018-07-05T06:01:46.492Z,19.20
2018-07-05T06:02:46.412Z,17.20
2018-07-05T06:03:46.443Z,15.90
2018-07-05T06:04:46.404Z,15.10
2018-07-05T06:05:46.416Z,17.20
2018-07-05T06:06:46.446Z,14.80
2018-07-05T06:07:46.370Z,17.80
2018-07-05T06:08:46.348Z,15.20
2018-07-05T06:09:46.351Z,16.40
2018-07-05T06:10:46.315Z,15.60
2018-07-05T06:11:46.325Z,17.20
2018-07-05T06:12:46.319Z,17.00
2018-07-05T06:13:46.275Z,17.60
2018-07-05T06:14:46.282Z,15.80
2018-07-05T06:15:46.285Z,17.10
2018-07-05T06:16:46.262Z,19.10
2018-07-05T06:17:46.281Z,16.20
2018-07-05T06:18:46.267Z,17.60
2018-07-05T06:19:46.228Z,16.10
2018-07-05T06:20:46.219Z,19.40
2018-07-05T06:21:46.197Z,15.90
2018-07-05T06:22:46.202Z,16.90
2018-07-05T06:23:46.158Z,17.30
2018-07-05T06:24:46.156Z,14.50
2018-07-05T06:25:46.164Z,15.50
2018-07-05T06:26:46.172Z,15.50
2018-07-05T06:27:46.123Z,17.30
2018-07-05T06:28:46.192Z,17.00
2018-07-05T06:29:46.114Z,15.90
2018-07-05T06:30:46.096Z,15.90
2018-07-05T06:31:46.086Z,17.10
2018-07-05T06:32:46.072Z,16.70
2018-07-05T06:33:46.075Z,15.40
2018-07-05T06:34:46.051Z,15.80
2018-07-05T06:35:46.051Z,16.30
2018-07-05T06:36:46.055Z,17.20
2018-07-05T06:37:46.034Z,17.30
2018-07-05T06:38:46.005Z,18.50
2018-07-05T06:39:46.011Z,16.20
2018-07-05T06:40:46.000Z,18.60
2018-07-05T06:41:46.006Z,20.60
2018-07-05T06:42:45.953Z,18.40
2018-07-05T06:43:46.005Z,16.20
2018-07-05T06:44:45.947Z,14.70
2018-07-05T06:45:45.972Z,13.80
2018-07-05T06:46:46.049Z,15.20
2018-07-05T06:47:45.912Z,16.10
2018-07-05T06:48:45.890Z,16.00
2018-07-05T06:49:45.878Z,12.00
2018-07-05T06:50:45.876Z,14.70
2018-07-05T06:51:45.856Z,16.10
2018-07-05T06:52:45.860Z,13.90
2018-07-05T06:53:45.841Z,15.50
2018-07-05T06:54:45.877Z,12.20
2018-07-05T06:55:45.828Z,13.30
2018-07-05T06:56:45.944Z,15.70
2018-07-05T06:57:45.849Z,15.80
2018-07-05T06:58:45.836Z,16.40
2018-07-05T06:59:45.831Z,15.60
2018-07-05T07:00:45.812Z,12.00
2018-07-05T07:01:45.777Z,14.00
2018-07-05T07:02:45.765Z,16.70
2018-07-05T07:03:45.759Z,15.20
2018-07-05T07:04:45.767Z,14.50
2018-07-05T07:05:45.755Z,16.70
2018-07-05T07:06:45.769Z,16.40
2018-07-05T07:07:45.719Z,15.20
2018-07-05T07:08:45.734Z,14.10
2018-07-05T07:09:45.722Z,13.90
2018-07-05T07:10:45.705Z,16.70
2018-07-05T07:11:45.707Z,14.00
2018-07-05T07:12:45.698Z,14.10
2018-07-05T07:13:45.704Z,13.20
2018-07-05T07:14:45.699Z,14.10
2018-07-05T07:15:45.716Z,16.60
2018-07-05T07:16:45.671Z,16.20
2018-07-05T07:17:45.659Z,12.30
2018-07-05T07:18:45.646Z,14.30
2018-07-05T07:19:45.659Z,13.70
2018-07-05T07:20:45.647Z,14.00
2018-07-05T07:21:45.663Z,12.30
2018-07-05T07:22:45.684Z,18.80
2018-07-05T07:23:45.643Z,13.70
2018-07-05T07:24:45.629Z,16.70
2018-07-05T07:25:45.636Z,14.90
2018-07-05T07:26:45.607Z,13.00
2018-07-05T07:27:45.574Z,13.90
2018-07-05T07:28:45.585Z,12.50
2018-07-05T07:29:45.588Z,13.10
2018-07-05T07:30:45.592Z,16.30
2018-07-05T07:31:45.614Z,13.80
2018-07-05T07:32:45.570Z,14.70
2018-07-05T07:33:45.607Z,15.90
2018-07-05T07:34:45.554Z,16.70
2018-07-05T07:35:45.565Z,14.50
2018-07-05T07:36:45.560Z,15.90
2018-07-05T07:37:45.644Z,13.90
2018-07-05T07:38:45.527Z,13.00
2018-07-05T07:39:45.546Z,13.90
2018-07-05T07:40:45.492Z,14.80
2018-07-05T07:41:45.666Z,16.10
2018-07-05T07:42:45.540Z,16.30
2018-07-05T07:43:45.491Z,13.40
2018-07-05T07:44:45.488Z,17.40
2018-07-05T07:45:45.541Z,20.20
2018-07-05T07:46:45.522Z,14.50
2018-07-05T07:47:45.458Z,14.10
2018-07-05T07:48:46.118Z,14.80
2018-07-05T07:49:45.458Z,16.40
2018-07-05T07:50:45.462Z,14.50
2018-07-05T07:51:45.512Z,19.10
2018-07-05T07:52:45.480Z,14.10
2018-07-05T07:53:45.473Z,14.00
2018-07-05T07:54:45.431Z,13.10
2018-07-05T07:55:45.455Z,12.70
2018-07-05T07:56:45.419Z,16.00
2018-07-05T07:57:45.408Z,12.00
2018-07-05T07:58:45.408Z,11.20
2018-07-05T07:59:45.398Z,11.90
2018-07-05T08:00:45.398Z,14.80
2018-07-05T08:01:45.494Z,14.00
2018-07-05T08:02:46.108Z,14.60
2018-07-05T08:03:45.402Z,11.60
2018-07-05T08:04:45.390Z,14.10
2018-07-05T08:05:45.383Z,12.70
2018-07-05T08:06:45.406Z,16.20
2018-07-05T08:07:45.366Z,10.20
2018-07-05T08:08:45.364Z,12.70
2018-07-05T08:09:45.460Z,13.50
2018-07-05T08:10:45.354Z,13.10
2018-07-05T08:11:45.375Z,11.40
2018-07-05T08:12:45.341Z,16.50
2018-07-05T08:13:45.329Z,13.10
2018-07-05T08:14:45.326Z,14.60
2018-07-05T08:15:45.324Z,13.30
2018-07-05T08:16:45.335Z,11.80
2018-07-05T08:17:45.329Z,10.90
2018-07-05T08:18:45.381Z,16.80
2018-07-05T08:19:45.312Z,15.40
2018-07-05T08:20:45.342Z,13.80
2018-07-05T08:21:45.321Z,11.90
2018-07-05T08:22:45.309Z,11.40
2018-07-05T08:23:45.308Z,15.20
2018-07-05T08:24:45.307Z,12.00
2018-07-05T08:25:45.279Z,11.30
2018-07-05T08:26:45.278Z,12.20
2018-07-05T08:27:45.346Z,12.40
2018-07-05T08:28:45.319Z,13.70
2018-07-05T08:29:45.344Z,11.80
2018-07-05T08:30:45.262Z,15.50
2018-07-05T08:31:45.263Z,14.90
2018-07-05T08:32:45.652Z,14.20
2018-07-05T08:33:45.479Z,15.30
2018-07-05T08:34:45.565Z,18.90
2018-07-05T08:35:45.220Z,15.90
2018-07-05T08:36:45.225Z,15.20
2018-07-05T08:37:45.307Z,12.80
2018-07-05T08:38:45.267Z,17.60
2018-07-05T08:39:45.212Z,14.70
2018-07-05T08:40:45.191Z,16.60
2018-07-05T08:41:45.216Z,16.50
2018-07-05T08:42:45.284Z,13.10
2018-07-05T08:43:45.202Z,16.50
2018-07-05T08:46:15.448Z,13.50
